Marie Kirk — 2EAU7 — position and weather

sailwx.info

Track history (hours):
 
Tides and Currents Weather Stations Pressure Air Temp Water Temp Dewpoint Dewpoint Depression Visibility Wind Speed Wind Dir Waves Ship Positions

Marie Kirk

Last reported at 2018-Jun-20 22:09 UTC. Time now 2018-Jun-20 23:05 UTC.
Position N 48°54' W 005°49'.

Length 183 m; draft 11.1 m.

Type: Ship. MMSI: 235083559.

Date/timePositionNaut miles runAvg speedWind from/ knotsBaromVisibWave heightAir tempDewpointWater temp
2018-Jun-20 22:09N 48°54' W 005°49'9912.1
2018-Jun-20 13:56N 49°46' W 003°40'911.4
2018-Jun-20 13:09N 49°50' W 003°28'211.2
2018-Jun-20 13:00N 49°50' W 003°25'611.1
2018-Jun-20 12:30N 49°53' W 003°18'510.9
2018-Jun-20 12:00N 49°56' W 003°11'510.9
2018-Jun-20 11:30N 49°58' W 003°02'611.0
2018-Jun-20 11:00N 50°00' W 002°55'611.5
2018-Jun-20 10:28N 50°02' W 002°46'612.0
2018-Jun-20 09:57N 50°04' W 002°37'1413.0
2018-Jun-20 08:52N 50°08' W 002°15'4214.9
2018-Jun-20 06:04N 50°19' W 001°13'314.9
2018-Jun-20 05:52N 50°20' W 001°08'514.3
2018-Jun-20 05:30N 50°21' W 001°00'713.5
2018-Jun-20 04:59N 50°23' W 000°50'612.6
2018-Jun-20 04:30N 50°25' W 000°41'612.0
2018-Jun-20 03:59N 50°26' W 000°31'1011.5
2018-Jun-20 03:10N 50°29' W 000°17'211.0
2018-Jun-20 03:00N 50°29' W 000°14'510.9
2018-Jun-20 02:30N 50°31' W 000°06'810.3
2018-Jun-20 01:46N 50°33' E 000°05'410.1
2018-Jun-20 01:23N 50°34' E 000°11'410.2
2018-Jun-20 01:01N 50°35' E 000°17'510.4
2018-Jun-20 00:31N 50°37' E 000°25'611.3
2018-Jun-20 00:01N 50°38' E 000°34'611.9
2018-Jun-19 23:30N 50°41' E 000°42'612.6
2018-Jun-19 23:00N 50°44' E 000°51'713.2
2018-Jun-19 22:30N 50°47' E 000°60'713.3
2018-Jun-19 21:59N 50°51' E 001°09'613.1
2018-Jun-19 21:31N 50°54' E 001°17'713.0
2018-Jun-19 21:01N 50°59' E 001°24'612.3
2018-Jun-19 20:30N 51°04' E 001°31'611.6
2018-Jun-19 20:00N 51°08' E 001°37'611.2
2018-Jun-19 19:31N 51°12' E 001°44'510.5
2018-Jun-19 19:00N 51°16' E 001°48'510.4
2018-Jun-19 18:31N 51°21' E 001°52'510.1
2018-Jun-19 18:00N 51°25' E 001°57'510.4
2018-Jun-19 17:30N 51°24' E 002°05'611.7
2018-Jun-19 17:00N 51°22' E 002°14'510.3
2018-Jun-19 16:30N 51°22' E 002°22'611.0
2018-Jun-19 16:00N 51°23' E 002°31'611.6
2018-Jun-19 15:29N 51°23' E 002°40'611.4
2018-Jun-19 15:00N 51°22' E 002°49'713.3
2018-Jun-19 14:30N 51°23' E 002°59'612.5
2018-Jun-19 14:01N 51°24' E 003°09'612.8
2018-Jun-19 13:30N 51°24' E 003°19'612.7
2018-Jun-19 13:00N 51°25' E 003°30'510.2
2018-Jun-19 12:30N 51°26' E 003°38'510.5
2018-Jun-19 12:00N 51°23' E 003°44'612.2
2018-Jun-19 11:30N 51°21' E 003°53'713.3
2018-Jun-19 11:00N 51°26' E 003°60'612.6
2018-Jun-19 10:30N 51°22' E 004°08'5 9.4
2018-Jun-19 10:01N 51°21' E 004°15'1 2.9
2018-Jun-19 09:31N 51°21' E 004°17'0 0.0
2018-Jun-19 09:01N 51°21' E 004°17'0 0.8
2018-Jun-19 08:29N 51°20' E 004°18'3 5.6
2018-Jun-19 08:01N 51°18' E 004°20'2 4.3
2018-Jun-19 07:30N 51°16' E 004°22'0 0.3
2018-Jun-19 07:00N 51°16' E 004°21'0 0.0
2018-Jun-19 06:30N 51°16' E 004°21'0 0.0
2018-Jun-19 06:00N 51°16' E 004°21'0 0.0
2018-Jun-19 05:30N 51°16' E 004°21'0 0.0
2018-Jun-19 05:00N 51°16' E 004°21'0 0.0
2018-Jun-19 04:30N 51°16' E 004°21'0 0.0
2018-Jun-19 04:00N 51°16' E 004°21'0 0.0
2018-Jun-19 03:30N 51°16' E 004°21'0 0.0
2018-Jun-19 03:00N 51°16' E 004°21'0 0.0
2018-Jun-19 02:30N 51°16' E 004°21'0 0.0
2018-Jun-19 02:00N 51°16' E 004°21'0 0.0
2018-Jun-19 01:30N 51°16' E 004°21'0 0.0
2018-Jun-19 01:00N 51°16' E 004°21'0 0.0
2018-Jun-19 00:27N 51°16' E 004°21'0 0.0
2018-Jun-19 00:00N 51°16' E 004°21'0 0.0
2018-Jun-18 23:27N 51°16' E 004°21'0 0.0
2018-Jun-18 23:00N 51°16' E 004°21'0 0.0
2018-Jun-18 22:30N 51°16' E 004°21'0 0.0
2018-Jun-18 22:00N 51°16' E 004°21'0 0.0
2018-Jun-18 21:30N 51°16' E 004°21'0 0.0
2018-Jun-18 21:00N 51°16' E 004°21'0 0.0
2018-Jun-18 20:30N 51°16' E 004°21'0 0.0
2018-Jun-18 20:00N 51°16' E 004°21'0 0.0
2018-Jun-18 19:30N 51°16' E 004°21'0 0.0
2018-Jun-18 18:57N 51°16' E 004°21'0 0.0
2018-Jun-18 18:30N 51°16' E 004°21'0 0.0
2018-Jun-18 18:00N 51°16' E 004°21'0 0.0
2018-Jun-18 17:30N 51°16' E 004°21'0 0.0
2018-Jun-18 17:00N 51°16' E 004°21'0 0.0
2018-Jun-18 16:30N 51°16' E 004°21'0 0.1
2018-Jun-18 15:57N 51°16' E 004°21'0 0.1
2018-Jun-18 15:30N 51°16' E 004°21'0 0.0
2018-Jun-18 15:00N 51°16' E 004°21'0 0.0
2018-Jun-18 14:30N 51°16' E 004°21'0 0.0
2018-Jun-18 14:00N 51°16' E 004°21'0 0.0
2018-Jun-18 13:30N 51°16' E 004°21'0 0.0
2018-Jun-18 13:00N 51°16' E 004°21'0 0.0
2018-Jun-18 12:30N 51°16' E 004°21'0 0.0
2018-Jun-18 12:00N 51°16' E 004°21'0 0.0
2018-Jun-18 11:24N 51°16' E 004°21'0 0.0
2018-Jun-18 11:00N 51°16' E 004°21'0 0.0
2018-Jun-18 10:30N 51°16' E 004°21'0 0.0
2018-Jun-18 10:00N 51°16' E 004°21'0 0.0
2018-Jun-18 09:30N 51°16' E 004°21'0 0.0
2018-Jun-18 09:00N 51°16' E 004°21'0 0.0
2018-Jun-18 08:30N 51°16' E 004°21'0 0.0
2018-Jun-18 08:00N 51°16' E 004°21'0 0.0
2018-Jun-18 07:30N 51°16' E 004°21'0 0.0
2018-Jun-18 07:00N 51°16' E 004°21'0 0.0
2018-Jun-18 06:30N 51°16' E 004°21'0 0.0
2018-Jun-18 06:00N 51°16' E 004°21'0 0.0
2018-Jun-18 05:30N 51°16' E 004°21'0 0.0
2018-Jun-18 05:00N 51°16' E 004°21'0 0.0
2018-Jun-18 04:27N 51°16' E 004°21'0 0.0
2018-Jun-18 04:00N 51°16' E 004°21'0 0.0
2018-Jun-18 03:30N 51°16' E 004°21'0 0.0
2018-Jun-18 03:00N 51°16' E 004°21'0 0.0
2018-Jun-18 02:30N 51°16' E 004°21'0 0.0
2018-Jun-18 02:00N 51°16' E 004°21'0 0.0
2018-Jun-18 01:30N 51°16' E 004°21'0 0.0
2018-Jun-18 01:00N 51°16' E 004°21'0 0.0
2018-Jun-18 00:30N 51°16' E 004°21'0 0.0
2018-Jun-18 00:00N 51°16' E 004°21'0 0.0
2018-Jun-17 23:30N 51°16' E 004°21'0 0.0
2018-Jun-17 23:00N 51°16' E 004°21'0 0.0
2018-Jun-17 22:27N 51°16' E 004°21'0 0.0
2018-Jun-17 22:00N 51°16' E 004°21'0 0.0
2018-Jun-17 21:30N 51°16' E 004°21'0 0.0
2018-Jun-17 21:00N 51°16' E 004°21'0 0.0
2018-Jun-17 20:27N 51°16' E 004°21'0 0.0
2018-Jun-17 20:00N 51°16' E 004°21'0 0.0
2018-Jun-17 19:30N 51°16' E 004°21'0 0.0
2018-Jun-17 19:00N 51°16' E 004°21'0 0.0
2018-Jun-17 18:30N 51°16' E 004°21'0 0.0
2018-Jun-17 18:00N 51°16' E 004°21'0 0.0
2018-Jun-17 17:30N 51°16' E 004°21'0 0.0
2018-Jun-17 17:00N 51°16' E 004°21'0 0.0
2018-Jun-17 16:30N 51°16' E 004°21'0 0.0
2018-Jun-17 16:00N 51°16' E 004°21'0 0.0
2018-Jun-17 15:18N 51°16' E 004°21'0 0.0
2018-Jun-17 14:57N 51°16' E 004°21'0 0.0
2018-Jun-17 14:30N 51°16' E 004°21'0 0.0
2018-Jun-17 14:00N 51°16' E 004°21'0 0.0
2018-Jun-17 13:30N 51°16' E 004°21'0 0.0
2018-Jun-17 13:00N 51°16' E 004°21'0 0.0
2018-Jun-17 12:30N 51°16' E 004°21'0 0.0
2018-Jun-17 12:00N 51°16' E 004°21'0 0.0
2018-Jun-17 11:30N 51°16' E 004°21'0 0.0
2018-Jun-17 11:00N 51°16' E 004°21'0 0.0
2018-Jun-17 10:30N 51°16' E 004°21'0 0.0
2018-Jun-17 09:57N 51°16' E 004°21'0 0.0
2018-Jun-17 09:30N 51°16' E 004°21'0 0.0
2018-Jun-17 09:00N 51°16' E 004°21'0 0.0
2018-Jun-17 08:30N 51°16' E 004°21'0 0.0
2018-Jun-17 08:00N 51°16' E 004°21'0 0.0
2018-Jun-17 07:30N 51°16' E 004°21'0 0.0
2018-Jun-17 06:57N 51°16' E 004°21'0 0.0
2018-Jun-17 06:30N 51°16' E 004°21'0 0.0
2018-Jun-17 05:57N 51°16' E 004°21'0 0.0
2018-Jun-17 05:30N 51°16' E 004°21'0 0.0
2018-Jun-17 05:00N 51°16' E 004°21'0 0.0
2018-Jun-17 04:30N 51°16' E 004°21'0 0.0
2018-Jun-17 04:00N 51°16' E 004°21'0 0.0
2018-Jun-17 03:30N 51°16' E 004°21'0 0.0
2018-Jun-17 03:00N 51°16' E 004°21'0 0.0
2018-Jun-17 02:30N 51°16' E 004°21'0 0.0
2018-Jun-17 01:57N 51°16' E 004°21'0 0.2
2018-Jun-17 01:30N 51°16' E 004°21'0 0.2
2018-Jun-17 01:00N 51°16' E 004°21'0 0.0
2018-Jun-17 00:30N 51°16' E 004°21'0 0.0
2018-Jun-17 00:00N 51°16' E 004°21'0 0.0
2018-Jun-16 23:30N 51°16' E 004°21'0 0.0
2018-Jun-16 22:57N 51°16' E 004°21'0 0.0
2018-Jun-16 22:30N 51°16' E 004°21'0 0.0
2018-Jun-16 22:00N 51°16' E 004°21'0 0.0
2018-Jun-16 21:30N 51°16' E 004°21'0 0.0
2018-Jun-16 21:00N 51°16' E 004°21'0 0.0
2018-Jun-16 20:30N 51°16' E 004°21'0 0.0
2018-Jun-16 19:57N 51°16' E 004°21'0 0.0
2018-Jun-16 19:30N 51°16' E 004°21'0 0.0
2018-Jun-16 19:00N 51°16' E 004°21'0 0.0
2018-Jun-16 18:30N 51°16' E 004°21'0 0.0
2018-Jun-16 18:00N 51°16' E 004°21'0 0.0
2018-Jun-16 17:30N 51°16' E 004°21'0 0.0
2018-Jun-16 17:00N 51°16' E 004°21'0 0.0
2018-Jun-16 16:30N 51°16' E 004°21'0 0.0
2018-Jun-16 16:00N 51°16' E 004°21'0 0.0
2018-Jun-16 15:30N 51°16' E 004°21'0 0.0
2018-Jun-16 15:00N 51°16' E 004°21'0 0.0
2018-Jun-16 14:30N 51°16' E 004°21'0 0.0
2018-Jun-16 14:00N 51°16' E 004°21'0 0.0
2018-Jun-16 13:27N 51°16' E 004°21'0 0.0
2018-Jun-16 13:00N 51°16' E 004°21'0 0.0
2018-Jun-16 12:31N 51°16' E 004°21'1 2.9
2018-Jun-16 12:00N 51°18' E 004°20'4 7.3
2018-Jun-16 11:30N 51°21' E 004°17'0 0.3
2018-Jun-16 11:00N 51°21' E 004°17'0 0.0
2018-Jun-16 10:30N 51°21' E 004°17'0 0.4
2018-Jun-16 10:00N 51°21' E 004°17'2 4.0
2018-Jun-16 09:30N 51°21' E 004°14'3 6.2
2018-Jun-16 09:00N 51°23' E 004°10'5 9.3
2018-Jun-16 08:31N 51°24' E 004°02'3 5.9
2018-Jun-16 08:00N 51°24' E 003°58'510.2
2018-Jun-16 07:30N 51°21' E 003°52'510.0
2018-Jun-16 07:00N 51°22' E 003°44'5 9.9
2018-Jun-16 06:30N 51°26' E 003°39'4 7.6
2018-Jun-16 06:00N 51°25' E 003°33'3 5.1
2018-Jun-16 05:30N 51°25' E 003°29'5 9.2
2018-Jun-16 05:00N 51°24' E 003°22'612.9
2018-Jun-16 04:30N 51°24' E 003°12'714.1
2018-Jun-16 03:59N 51°23' E 002°60'715.2
2018-Jun-16 03:30N 51°22' E 002°48'6 9.9
2018-Jun-16 02:53N 51°22' E 002°39'2 5.4
2018-Jun-16 02:29N 51°22' E 002°35'4 7.3
2018-Jun-16 02:00N 51°22' E 002°29'5 9.5
2018-Jun-16 01:30N 51°20' E 002°22'713.5
2018-Jun-16 01:00N 51°18' E 002°12'612.6
2018-Jun-16 00:30N 51°21' E 002°04'510.9
2018-Jun-16 00:00N 51°25' E 001°57'611.7
2018-Jun-15 23:30N 51°30' E 002°02'612.4
2018-Jun-15 23:00N 51°35' E 002°09'612.8
2018-Jun-15 22:31N 51°39' E 002°16'713.4
2018-Jun-15 22:01N 51°44' E 002°24'713.4
2018-Jun-15 21:30N 51°49' E 002°31'713.3
2018-Jun-15 21:00N 51°54' E 002°38'613.3
2018-Jun-15 20:30N 51°59' E 002°45'612.9
2018-Jun-15 20:00N 52°02' E 002°54'713.9
2018-Jun-15 19:29N 52°03' E 003°06'713.8
2018-Jun-15 19:00N 52°03' E 003°17'713.8
2018-Jun-15 18:31N 52°04' E 003°28'612.8
2018-Jun-15 18:00N 52°05' E 003°38'510.2
2018-Jun-15 17:30N 52°10' E 003°40'0 0.4
2018-Jun-15 17:00N 52°10' E 003°40'0 0.0
2018-Jun-15 16:30N 52°10' E 003°40'0 0.0
2018-Jun-15 16:00N 52°10' E 003°40'0 0.0
2018-Jun-15 15:30N 52°10' E 003°40'0 0.0
2018-Jun-15 14:59N 52°10' E 003°40'0 0.0
2018-Jun-15 14:30N 52°10' E 003°40'0 0.0
2018-Jun-15 14:00N 52°10' E 003°40'0 0.0
2018-Jun-15 13:30N 52°10' E 003°40'0 0.3
2018-Jun-15 13:00N 52°10' E 003°40'0 0.1
2018-Jun-15 12:30N 52°10' E 003°40'0 0.0
2018-Jun-15 11:59N 52°10' E 003°40'0 0.1
2018-Jun-15 11:30N 52°10' E 003°40'0 0.0
2018-Jun-15 11:00N 52°10' E 003°40'0 0.0
2018-Jun-15 10:30N 52°10' E 003°40'0 0.0
2018-Jun-15 10:00N 52°10' E 003°40'0 0.0
2018-Jun-15 09:30N 52°10' E 003°40'0 0.0
2018-Jun-15 09:00N 52°10' E 003°40'0 0.0
2018-Jun-15 08:30N 52°10' E 003°40'0 0.0
2018-Jun-15 08:00N 52°10' E 003°40'0 0.1
2018-Jun-15 07:30N 52°10' E 003°40'0 0.1
2018-Jun-15 06:58N 52°10' E 003°40'0 0.2
2018-Jun-15 06:29N 52°10' E 003°40'0 0.1
2018-Jun-15 05:59N 52°10' E 003°40'0 0.0
2018-Jun-15 05:29N 52°10' E 003°40'0 0.0
2018-Jun-15 05:00N 52°10' E 003°40'0 0.0
2018-Jun-15 04:30N 52°10' E 003°40'0 0.0
2018-Jun-15 04:00N 52°10' E 003°40'0 0.0
2018-Jun-15 03:29N 52°10' E 003°40'0 0.0
2018-Jun-15 03:00N 52°10' E 003°40'0 0.0
2018-Jun-15 02:30N 52°10' E 003°40'0 0.0
2018-Jun-15 02:00N 52°10' E 003°40'0 0.0
2018-Jun-15 01:30N 52°10' E 003°40'0 0.0
2018-Jun-15 00:59N 52°10' E 003°40'0 0.0
2018-Jun-15 00:30N 52°10' E 003°40'0 0.2
2018-Jun-14 23:59N 52°10' E 003°40'0 0.1
2018-Jun-14 23:30N 52°10' E 003°40'0 0.1
2018-Jun-14 23:00N 52°10' E 003°40'0 0.0
2018-Jun-14 22:30N 52°10' E 003°40'0 0.0
2018-Jun-14 22:00N 52°10' E 003°40'0 0.0
2018-Jun-14 21:30N 52°10' E 003°40'0 0.0
2018-Jun-14 21:00N 52°10' E 003°40'0 0.0
2018-Jun-14 20:30N 52°10' E 003°40'0 0.1
2018-Jun-14 20:00N 52°10' E 003°40'0 0.2
2018-Jun-14 19:30N 52°10' E 003°40'0 0.1
2018-Jun-14 19:00N 52°10' E 003°40'0 0.0
2018-Jun-14 18:30N 52°10' E 003°40'0 0.1
2018-Jun-14 18:00N 52°10' E 003°40'0 0.0
2018-Jun-14 17:30N 52°10' E 003°40'0 0.0
2018-Jun-14 17:00N 52°10' E 003°40'0 0.0
2018-Jun-14 16:29N 52°10' E 003°40'0 0.0
2018-Jun-14 15:59N 52°10' E 003°40'0 0.0
2018-Jun-14 15:25N 52°10' E 003°40'0 0.0
2018-Jun-14 15:00N 52°10' E 003°40'0 0.0
2018-Jun-14 14:29N 52°10' E 003°40'0 0.0
2018-Jun-14 14:00N 52°10' E 003°40'0 0.0
2018-Jun-14 13:30N 52°10' E 003°40'0 0.3
2018-Jun-14 13:00N 52°11' E 003°40'3 5.5
2018-Jun-14 12:30N 52°08' E 003°40'611.9
2018-Jun-14 12:00N 52°05' E 003°48'612.4
2018-Jun-14 11:30N 52°03' E 003°58'612.8
2018-Jun-14 11:00N 51°59' E 004°06'611.2
2018-Jun-14 10:30N 51°56' E 004°13'4 7.5
2018-Jun-14 10:00N 51°53' E 004°18'1 1.0
2018-Jun-14 09:25N 51°53' E 004°17'0 0.0
2018-Jun-14 08:10N 51°53' E 004°17'0 0.0
2018-Jun-14 07:49N 51°53' E 004°17'0 0.0
2018-Jun-14 07:22N 51°53' E 004°17'0 0.0
2018-Jun-14 06:55N 51°53' E 004°17'0 0.0
2018-Jun-14 06:25N 51°53' E 004°17'0 0.0
2018-Jun-14 05:55N 51°53' E 004°17'0 0.0
2018-Jun-14 05:13N 51°53' E 004°17'0 0.0
2018-Jun-14 04:46N 51°53' E 004°17'0 0.0
2018-Jun-14 04:25N 51°53' E 004°17'0 0.0
2018-Jun-14 03:07N 51°53' E 004°17'0 0.0
2018-Jun-14 02:55N 51°53' E 004°17'0 0.0
2018-Jun-14 02:25N 51°53' E 004°17'0 0.0
2018-Jun-14 01:55N 51°53' E 004°17'0 0.0
2018-Jun-13 22:55N 51°53' E 004°17'0 0.0
2018-Jun-13 22:25N 51°53' E 004°17'0 0.0
2018-Jun-13 21:31N 51°53' E 004°17'0 0.0
2018-Jun-13 21:01N 51°53' E 004°17'0 0.0
2018-Jun-13 17:25N 51°53' E 004°17'0 0.0
2018-Jun-13 16:49N 51°53' E 004°17'0 0.0
2018-Jun-13 14:55N 51°53' E 004°17'0 0.0
2018-Jun-13 14:13N 51°53' E 004°17'0 0.0
2018-Jun-13 12:13N 51°53' E 004°17'0 0.0
2018-Jun-13 11:49N 51°53' E 004°17'0 0.0
2018-Jun-13 11:25N 51°53' E 004°17'0 0.0
2018-Jun-13 10:49N 51°53' E 004°17'0 0.0
2018-Jun-13 10:28N 51°53' E 004°17'1 1.1
2018-Jun-13 09:58N 51°53' E 004°17'0 0.1
2018-Jun-13 09:28N 51°53' E 004°17'0 0.0
2018-Jun-13 08:58N 51°53' E 004°17'0 0.0
2018-Jun-13 08:28N 51°53' E 004°17'0 0.0
2018-Jun-13 07:58N 51°53' E 004°17'0 0.0
2018-Jun-13 07:28N 51°53' E 004°17'0 0.0
2018-Jun-13 06:58N 51°53' E 004°17'0 0.0
2018-Jun-13 06:28N 51°53' E 004°17'0 0.0
2018-Jun-13 05:58N 51°53' E 004°17'0 0.0
2018-Jun-13 05:28N 51°53' E 004°17'0 0.0
2018-Jun-13 04:58N 51°53' E 004°17'0 0.0
2018-Jun-13 04:28N 51°53' E 004°17'0 0.0
2018-Jun-13 03:58N 51°53' E 004°17'0 0.0
2018-Jun-13 03:25N 51°53' E 004°17'0 0.0
2018-Jun-13 02:58N 51°53' E 004°17'0 0.0
2018-Jun-13 02:28N 51°53' E 004°17'0 0.0
2018-Jun-13 01:58N 51°53' E 004°17'0 0.0
2018-Jun-13 01:28N 51°53' E 004°17'0 0.0
2018-Jun-13 00:58N 51°53' E 004°17'0 0.0
2018-Jun-13 00:28N 51°53' E 004°17'0 0.0
2018-Jun-12 23:58N 51°53' E 004°17'0 0.0
2018-Jun-12 23:28N 51°53' E 004°17'0 0.0
2018-Jun-12 22:58N 51°53' E 004°17'0 0.0
2018-Jun-12 22:28N 51°53' E 004°17'0 0.0
2018-Jun-12 21:58N 51°53' E 004°17'0 0.0
2018-Jun-12 21:28N 51°53' E 004°17'0 0.0
2018-Jun-12 20:58N 51°53' E 004°17'0 0.0
2018-Jun-12 20:28N 51°53' E 004°17'0 0.0
2018-Jun-12 19:58N 51°53' E 004°17'0 0.0
2018-Jun-12 19:28N 51°53' E 004°17'0 0.0
2018-Jun-12 18:58N 51°53' E 004°17'0 0.0
2018-Jun-12 18:28N 51°53' E 004°17'0 0.0
2018-Jun-12 17:58N 51°53' E 004°17'0 0.0
2018-Jun-12 17:28N 51°53' E 004°17'0 0.0
2018-Jun-12 16:58N 51°53' E 004°17'0 0.0
2018-Jun-12 16:28N 51°53' E 004°17'0 0.0
2018-Jun-12 15:55N 51°53' E 004°17'0 0.0
2018-Jun-12 15:28N 51°53' E 004°17'0 0.0
2018-Jun-12 14:58N 51°53' E 004°17'0 0.0
2018-Jun-12 14:28N 51°53' E 004°17'0 0.0
2018-Jun-12 13:58N 51°53' E 004°17'0 0.0
2018-Jun-12 13:28N 51°53' E 004°17'0 0.0
2018-Jun-12 12:58N 51°53' E 004°17'0 0.0
2018-Jun-12 12:28N 51°53' E 004°17'0 0.0
2018-Jun-12 11:58N 51°53' E 004°17'0 0.0
2018-Jun-12 11:28N 51°53' E 004°17'0 0.0
2018-Jun-12 10:58N 51°53' E 004°17'0 0.0
2018-Jun-12 10:28N 51°53' E 004°17'0 0.0
2018-Jun-12 09:58N 51°53' E 004°17'0 0.0
2018-Jun-12 09:28N 51°53' E 004°17'0 0.0
2018-Jun-12 08:58N 51°53' E 004°17'0 0.0
2018-Jun-12 08:28N 51°53' E 004°17'0 0.0
2018-Jun-12 07:58N 51°53' E 004°17'0 0.0
2018-Jun-12 07:28N 51°53' E 004°17'0 0.0
2018-Jun-12 06:58N 51°53' E 004°17'0 0.0
2018-Jun-12 06:28N 51°53' E 004°17'0 0.0
2018-Jun-12 05:58N 51°53' E 004°17'0 0.0
2018-Jun-12 05:28N 51°53' E 004°17'0 0.0
2018-Jun-12 04:58N 51°53' E 004°17'0 0.0
2018-Jun-12 04:28N 51°53' E 004°17'0 0.0
2018-Jun-12 03:58N 51°53' E 004°17'0 0.0
2018-Jun-12 03:28N 51°53' E 004°17'0 0.0
2018-Jun-12 02:58N 51°53' E 004°17'0 0.0
2018-Jun-12 02:28N 51°53' E 004°17'0 0.0
2018-Jun-12 01:58N 51°53' E 004°17'0 0.0
2018-Jun-12 01:25N 51°53' E 004°17'0 0.0
2018-Jun-12 01:00N 51°53' E 004°17'0 0.5
2018-Jun-12 00:30N 51°53' E 004°17'1 1.8
2018-Jun-12 00:00N 51°54' E 004°17'510.7
2018-Jun-11 23:30N 51°57' E 004°10'612.8
2018-Jun-11 23:00N 51°60' E 004°01'612.8
2018-Jun-11 22:30N 51°60' E 003°50'5 9.3
2018-Jun-11 22:00N 51°59' E 003°43'4 7.8
2018-Jun-11 21:30N 51°58' E 003°37'5 9.4
2018-Jun-11 21:00N 51°56' E 003°29'611.9
2018-Jun-11 20:30N 51°55' E 003°20'611.7
2018-Jun-11 20:00N 51°54' E 003°11'611.5
2018-Jun-11 19:29N 51°52' E 003°02'611.4
2018-Jun-11 18:58N 51°50' E 002°53'611.4
2018-Jun-11 18:29N 51°48' E 002°44'511.1
2018-Jun-11 18:00N 51°46' E 002°36'611.0
2018-Jun-11 17:30N 51°42' E 002°30'511.1
2018-Jun-11 17:00N 51°38' E 002°25'611.3
2018-Jun-11 16:30N 51°33' E 002°19'611.7
2018-Jun-11 16:00N 51°29' E 002°13'611.6
2018-Jun-11 15:30N 51°24' E 002°07'4 7.5
2018-Jun-11 14:59N 51°20' E 002°08'610.4
2018-Jun-11 14:27N 51°15' E 002°05'410.3
2018-Jun-11 14:00N 51°12' E 001°60'510.8
2018-Jun-11 13:30N 51°09' E 001°52'510.8
2018-Jun-11 13:00N 51°06' E 001°45'611.4
2018-Jun-11 12:30N 51°02' E 001°38'611.9
2018-Jun-11 11:59N 50°58' E 001°32'812.2
2018-Jun-11 11:17N 50°50' E 001°25'812.4
2018-Jun-11 10:40N 50°43' E 001°22'211.8
2018-Jun-11 10:29N 50°41' E 001°20'4811.7
2018-Jun-11 06:21N 50°21' E 000°11'613.4
2018-Jun-11 05:54N 50°19' E 000°02'614.4
2018-Jun-11 05:30N 50°18' W 000°07'1214.4
2018-Jun-11 04:39N 50°15' W 000°25'214.4
2018-Jun-11 04:30N 50°14' W 000°28'914.1
2018-Jun-11 03:54N 50°12' W 000°41'613.8
2018-Jun-11 03:28N 50°10' W 000°50'613.4
2018-Jun-11 03:00N 50°09' W 000°60'712.6
2018-Jun-11 02:29N 50°07' W 001°10'612.0
2018-Jun-11 02:00N 50°06' W 001°18'611.4
2018-Jun-11 01:30N 50°04' W 001°27'511.0
2018-Jun-11 01:01N 50°03' W 001°35'510.3
2018-Jun-11 00:30N 50°02' W 001°43'5 9.9
2018-Jun-11 00:01N 50°00' W 001°50'5 9.9
2018-Jun-10 23:30N 49°59' W 001°58'6 9.8
2018-Jun-10 22:57N 49°58' W 002°06'410.0
2018-Jun-10 22:30N 49°57' W 002°13'  
Track history (hours):
 
Tides and Currents Weather Stations Pressure Air Temp Water Temp Dewpoint Dewpoint Depression Visibility Wind Speed Wind Dir Waves Ship Positions

Marie Kirk

Last reported at 2018-Jun-20 22:09 UTC. Time now 2018-Jun-20 23:05 UTC.
Position N 48°54' W 005°49'.

Length 183 m; draft 11.1 m.

Type: Ship. MMSI: 235083559.

Date/timePositionNaut miles runAvg speedWind from/ knotsBaromVisibWave heightAir tempDewpointWater temp
2018-Jun-20 22:09N 48°54' W 005°49'9912.1
2018-Jun-20 13:56N 49°46' W 003°40'911.4
2018-Jun-20 13:09N 49°50' W 003°28'211.2
2018-Jun-20 13:00N 49°50' W 003°25'611.1
2018-Jun-20 12:30N 49°53' W 003°18'510.9
2018-Jun-20 12:00N 49°56' W 003°11'510.9
2018-Jun-20 11:30N 49°58' W 003°02'611.0
2018-Jun-20 11:00N 50°00' W 002°55'611.5
2018-Jun-20 10:28N 50°02' W 002°46'612.0
2018-Jun-20 09:57N 50°04' W 002°37'1413.0
2018-Jun-20 08:52N 50°08' W 002°15'4214.9
2018-Jun-20 06:04N 50°19' W 001°13'314.9
2018-Jun-20 05:52N 50°20' W 001°08'514.3
2018-Jun-20 05:30N 50°21' W 001°00'713.5
2018-Jun-20 04:59N 50°23' W 000°50'612.6
2018-Jun-20 04:30N 50°25' W 000°41'612.0
2018-Jun-20 03:59N 50°26' W 000°31'1011.5
2018-Jun-20 03:10N 50°29' W 000°17'211.0
2018-Jun-20 03:00N 50°29' W 000°14'510.9
2018-Jun-20 02:30N 50°31' W 000°06'810.3
2018-Jun-20 01:46N 50°33' E 000°05'410.1
2018-Jun-20 01:23N 50°34' E 000°11'410.2
2018-Jun-20 01:01N 50°35' E 000°17'510.4
2018-Jun-20 00:31N 50°37' E 000°25'611.3
2018-Jun-20 00:01N 50°38' E 000°34'611.9
2018-Jun-19 23:30N 50°41' E 000°42'612.6
2018-Jun-19 23:00N 50°44' E 000°51'713.2
2018-Jun-19 22:30N 50°47' E 000°60'713.3
2018-Jun-19 21:59N 50°51' E 001°09'613.1
2018-Jun-19 21:31N 50°54' E 001°17'713.0
2018-Jun-19 21:01N 50°59' E 001°24'612.3
2018-Jun-19 20:30N 51°04' E 001°31'611.6
2018-Jun-19 20:00N 51°08' E 001°37'611.2
2018-Jun-19 19:31N 51°12' E 001°44'510.5
2018-Jun-19 19:00N 51°16' E 001°48'510.4
2018-Jun-19 18:31N 51°21' E 001°52'510.1
2018-Jun-19 18:00N 51°25' E 001°57'510.4
2018-Jun-19 17:30N 51°24' E 002°05'611.7
2018-Jun-19 17:00N 51°22' E 002°14'510.3
2018-Jun-19 16:30N 51°22' E 002°22'611.0
2018-Jun-19 16:00N 51°23' E 002°31'611.6
2018-Jun-19 15:29N 51°23' E 002°40'611.4
2018-Jun-19 15:00N 51°22' E 002°49'713.3
2018-Jun-19 14:30N 51°23' E 002°59'612.5
2018-Jun-19 14:01N 51°24' E 003°09'612.8
2018-Jun-19 13:30N 51°24' E 003°19'612.7
2018-Jun-19 13:00N 51°25' E 003°30'510.2
2018-Jun-19 12:30N 51°26' E 003°38'510.5
2018-Jun-19 12:00N 51°23' E 003°44'612.2
2018-Jun-19 11:30N 51°21' E 003°53'713.3
2018-Jun-19 11:00N 51°26' E 003°60'612.6
2018-Jun-19 10:30N 51°22' E 004°08'5 9.4
2018-Jun-19 10:01N 51°21' E 004°15'1 2.9
2018-Jun-19 09:31N 51°21' E 004°17'0 0.0
2018-Jun-19 09:01N 51°21' E 004°17'0 0.8
2018-Jun-19 08:29N 51°20' E 004°18'3 5.6
2018-Jun-19 08:01N 51°18' E 004°20'2 4.3
2018-Jun-19 07:30N 51°16' E 004°22'0 0.3
2018-Jun-19 07:00N 51°16' E 004°21'0 0.0
2018-Jun-19 06:30N 51°16' E 004°21'0 0.0
2018-Jun-19 06:00N 51°16' E 004°21'0 0.0
2018-Jun-19 05:30N 51°16' E 004°21'0 0.0
2018-Jun-19 05:00N 51°16' E 004°21'0 0.0
2018-Jun-19 04:30N 51°16' E 004°21'0 0.0
2018-Jun-19 04:00N 51°16' E 004°21'0 0.0
2018-Jun-19 03:30N 51°16' E 004°21'0 0.0
2018-Jun-19 03:00N 51°16' E 004°21'0 0.0
2018-Jun-19 02:30N 51°16' E 004°21'0 0.0
2018-Jun-19 02:00N 51°16' E 004°21'0 0.0
2018-Jun-19 01:30N 51°16' E 004°21'0 0.0
2018-Jun-19 01:00N 51°16' E 004°21'0 0.0
2018-Jun-19 00:27N 51°16' E 004°21'0 0.0
2018-Jun-19 00:00N 51°16' E 004°21'0 0.0
2018-Jun-18 23:27N 51°16' E 004°21'0 0.0
2018-Jun-18 23:00N 51°16' E 004°21'0 0.0
2018-Jun-18 22:30N 51°16' E 004°21'0 0.0
2018-Jun-18 22:00N 51°16' E 004°21'0 0.0
2018-Jun-18 21:30N 51°16' E 004°21'0 0.0
2018-Jun-18 21:00N 51°16' E 004°21'0 0.0
2018-Jun-18 20:30N 51°16' E 004°21'0 0.0
2018-Jun-18 20:00N 51°16' E 004°21'0 0.0
2018-Jun-18 19:30N 51°16' E 004°21'0 0.0
2018-Jun-18 18:57N 51°16' E 004°21'0 0.0
2018-Jun-18 18:30N 51°16' E 004°21'0 0.0
2018-Jun-18 18:00N 51°16' E 004°21'0 0.0
2018-Jun-18 17:30N 51°16' E 004°21'0 0.0
2018-Jun-18 17:00N 51°16' E 004°21'0 0.0
2018-Jun-18 16:30N 51°16' E 004°21'0 0.1
2018-Jun-18 15:57N 51°16' E 004°21'0 0.1
2018-Jun-18 15:30N 51°16' E 004°21'0 0.0
2018-Jun-18 15:00N 51°16' E 004°21'0 0.0
2018-Jun-18 14:30N 51°16' E 004°21'0 0.0
2018-Jun-18 14:00N 51°16' E 004°21'0 0.0
2018-Jun-18 13:30N 51°16' E 004°21'0 0.0
2018-Jun-18 13:00N 51°16' E 004°21'0 0.0
2018-Jun-18 12:30N 51°16' E 004°21'0 0.0
2018-Jun-18 12:00N 51°16' E 004°21'0 0.0
2018-Jun-18 11:24N 51°16' E 004°21'0 0.0
2018-Jun-18 11:00N 51°16' E 004°21'0 0.0
2018-Jun-18 10:30N 51°16' E 004°21'0 0.0
2018-Jun-18 10:00N 51°16' E 004°21'0 0.0
2018-Jun-18 09:30N 51°16' E 004°21'0 0.0
2018-Jun-18 09:00N 51°16' E 004°21'0 0.0
2018-Jun-18 08:30N 51°16' E 004°21'0 0.0
2018-Jun-18 08:00N 51°16' E 004°21'0 0.0
2018-Jun-18 07:30N 51°16' E 004°21'0 0.0
2018-Jun-18 07:00N 51°16' E 004°21'0 0.0
2018-Jun-18 06:30N 51°16' E 004°21'0 0.0
2018-Jun-18 06:00N 51°16' E 004°21'0 0.0
2018-Jun-18 05:30N 51°16' E 004°21'0 0.0
2018-Jun-18 05:00N 51°16' E 004°21'0 0.0
2018-Jun-18 04:27N 51°16' E 004°21'0 0.0
2018-Jun-18 04:00N 51°16' E 004°21'0 0.0
2018-Jun-18 03:30N 51°16' E 004°21'0 0.0
2018-Jun-18 03:00N 51°16' E 004°21'0 0.0
2018-Jun-18 02:30N 51°16' E 004°21'0 0.0
2018-Jun-18 02:00N 51°16' E 004°21'0 0.0
2018-Jun-18 01:30N 51°16' E 004°21'0 0.0
2018-Jun-18 01:00N 51°16' E 004°21'0 0.0
2018-Jun-18 00:30N 51°16' E 004°21'0 0.0
2018-Jun-18 00:00N 51°16' E 004°21'0 0.0
2018-Jun-17 23:30N 51°16' E 004°21'0 0.0
2018-Jun-17 23:00N 51°16' E 004°21'0 0.0
2018-Jun-17 22:27N 51°16' E 004°21'0 0.0
2018-Jun-17 22:00N 51°16' E 004°21'0 0.0
2018-Jun-17 21:30N 51°16' E 004°21'0 0.0
2018-Jun-17 21:00N 51°16' E 004°21'0 0.0
2018-Jun-17 20:27N 51°16' E 004°21'0 0.0
2018-Jun-17 20:00N 51°16' E 004°21'0 0.0
2018-Jun-17 19:30N 51°16' E 004°21'0 0.0
2018-Jun-17 19:00N 51°16' E 004°21'0 0.0
2018-Jun-17 18:30N 51°16' E 004°21'0 0.0
2018-Jun-17 18:00N 51°16' E 004°21'0 0.0
2018-Jun-17 17:30N 51°16' E 004°21'0 0.0
2018-Jun-17 17:00N 51°16' E 004°21'0 0.0
2018-Jun-17 16:30N 51°16' E 004°21'0 0.0
2018-Jun-17 16:00N 51°16' E 004°21'0 0.0
2018-Jun-17 15:18N 51°16' E 004°21'0 0.0
2018-Jun-17 14:57N 51°16' E 004°21'0 0.0
2018-Jun-17 14:30N 51°16' E 004°21'0 0.0
2018-Jun-17 14:00N 51°16' E 004°21'0 0.0
2018-Jun-17 13:30N 51°16' E 004°21'0 0.0
2018-Jun-17 13:00N 51°16' E 004°21'0 0.0
2018-Jun-17 12:30N 51°16' E 004°21'0 0.0
2018-Jun-17 12:00N 51°16' E 004°21'0 0.0
2018-Jun-17 11:30N 51°16' E 004°21'0 0.0
2018-Jun-17 11:00N 51°16' E 004°21'0 0.0
2018-Jun-17 10:30N 51°16' E 004°21'0 0.0
2018-Jun-17 09:57N 51°16' E 004°21'0 0.0
2018-Jun-17 09:30N 51°16' E 004°21'0 0.0
2018-Jun-17 09:00N 51°16' E 004°21'0 0.0
2018-Jun-17 08:30N 51°16' E 004°21'0 0.0
2018-Jun-17 08:00N 51°16' E 004°21'0 0.0
2018-Jun-17 07:30N 51°16' E 004°21'0 0.0
2018-Jun-17 06:57N 51°16' E 004°21'0 0.0
2018-Jun-17 06:30N 51°16' E 004°21'0 0.0
2018-Jun-17 05:57N 51°16' E 004°21'0 0.0
2018-Jun-17 05:30N 51°16' E 004°21'0 0.0
2018-Jun-17 05:00N 51°16' E 004°21'0 0.0
2018-Jun-17 04:30N 51°16' E 004°21'0 0.0
2018-Jun-17 04:00N 51°16' E 004°21'0 0.0
2018-Jun-17 03:30N 51°16' E 004°21'0 0.0
2018-Jun-17 03:00N 51°16' E 004°21'0 0.0
2018-Jun-17 02:30N 51°16' E 004°21'0 0.0
2018-Jun-17 01:57N 51°16' E 004°21'0 0.2
2018-Jun-17 01:30N 51°16' E 004°21'0 0.2
2018-Jun-17 01:00N 51°16' E 004°21'0 0.0
2018-Jun-17 00:30N 51°16' E 004°21'0 0.0
2018-Jun-17 00:00N 51°16' E 004°21'0 0.0
2018-Jun-16 23:30N 51°16' E 004°21'0 0.0
2018-Jun-16 22:57N 51°16' E 004°21'0 0.0
2018-Jun-16 22:30N 51°16' E 004°21'0 0.0
2018-Jun-16 22:00N 51°16' E 004°21'0 0.0
2018-Jun-16 21:30N 51°16' E 004°21'0 0.0
2018-Jun-16 21:00N 51°16' E 004°21'0 0.0
2018-Jun-16 20:30N 51°16' E 004°21'0 0.0
2018-Jun-16 19:57N 51°16' E 004°21'0 0.0
2018-Jun-16 19:30N 51°16' E 004°21'0 0.0
2018-Jun-16 19:00N 51°16' E 004°21'0 0.0
2018-Jun-16 18:30N 51°16' E 004°21'0 0.0
2018-Jun-16 18:00N 51°16' E 004°21'0 0.0
2018-Jun-16 17:30N 51°16' E 004°21'0 0.0
2018-Jun-16 17:00N 51°16' E 004°21'0 0.0
2018-Jun-16 16:30N 51°16' E 004°21'0 0.0
2018-Jun-16 16:00N 51°16' E 004°21'0 0.0
2018-Jun-16 15:30N 51°16' E 004°21'0 0.0
2018-Jun-16 15:00N 51°16' E 004°21'0 0.0
2018-Jun-16 14:30N 51°16' E 004°21'0 0.0
2018-Jun-16 14:00N 51°16' E 004°21'0 0.0
2018-Jun-16 13:27N 51°16' E 004°21'0 0.0
2018-Jun-16 13:00N 51°16' E 004°21'0 0.0
2018-Jun-16 12:31N 51°16' E 004°21'1 2.9
2018-Jun-16 12:00N 51°18' E 004°20'4 7.3
2018-Jun-16 11:30N 51°21' E 004°17'0 0.3
2018-Jun-16 11:00N 51°21' E 004°17'0 0.0
2018-Jun-16 10:30N 51°21' E 004°17'0 0.4
2018-Jun-16 10:00N 51°21' E 004°17'2 4.0
2018-Jun-16 09:30N 51°21' E 004°14'3 6.2
2018-Jun-16 09:00N 51°23' E 004°10'5 9.3
2018-Jun-16 08:31N 51°24' E 004°02'3 5.9
2018-Jun-16 08:00N 51°24' E 003°58'510.2
2018-Jun-16 07:30N 51°21' E 003°52'510.0
2018-Jun-16 07:00N 51°22' E 003°44'5 9.9
2018-Jun-16 06:30N 51°26' E 003°39'4 7.6
2018-Jun-16 06:00N 51°25' E 003°33'3 5.1
2018-Jun-16 05:30N 51°25' E 003°29'5 9.2
2018-Jun-16 05:00N 51°24' E 003°22'612.9
2018-Jun-16 04:30N 51°24' E 003°12'714.1
2018-Jun-16 03:59N 51°23' E 002°60'715.2
2018-Jun-16 03:30N 51°22' E 002°48'6 9.9
2018-Jun-16 02:53N 51°22' E 002°39'2 5.4
2018-Jun-16 02:29N 51°22' E 002°35'4 7.3
2018-Jun-16 02:00N 51°22' E 002°29'5 9.5
2018-Jun-16 01:30N 51°20' E 002°22'713.5
2018-Jun-16 01:00N 51°18' E 002°12'612.6
2018-Jun-16 00:30N 51°21' E 002°04'510.9
2018-Jun-16 00:00N 51°25' E 001°57'611.7
2018-Jun-15 23:30N 51°30' E 002°02'612.4
2018-Jun-15 23:00N 51°35' E 002°09'612.8
2018-Jun-15 22:31N 51°39' E 002°16'713.4
2018-Jun-15 22:01N 51°44' E 002°24'713.4
2018-Jun-15 21:30N 51°49' E 002°31'713.3
2018-Jun-15 21:00N 51°54' E 002°38'613.3
2018-Jun-15 20:30N 51°59' E 002°45'612.9
2018-Jun-15 20:00N 52°02' E 002°54'713.9
2018-Jun-15 19:29N 52°03' E 003°06'713.8
2018-Jun-15 19:00N 52°03' E 003°17'713.8
2018-Jun-15 18:31N 52°04' E 003°28'612.8
2018-Jun-15 18:00N 52°05' E 003°38'510.2
2018-Jun-15 17:30N 52°10' E 003°40'0 0.4
2018-Jun-15 17:00N 52°10' E 003°40'0 0.0
2018-Jun-15 16:30N 52°10' E 003°40'0 0.0
2018-Jun-15 16:00N 52°10' E 003°40'0 0.0
2018-Jun-15 15:30N 52°10' E 003°40'0 0.0
2018-Jun-15 14:59N 52°10' E 003°40'0 0.0
2018-Jun-15 14:30N 52°10' E 003°40'0 0.0
2018-Jun-15 14:00N 52°10' E 003°40'0 0.0
2018-Jun-15 13:30N 52°10' E 003°40'0 0.3
2018-Jun-15 13:00N 52°10' E 003°40'0 0.1
2018-Jun-15 12:30N 52°10' E 003°40'0 0.0
2018-Jun-15 11:59N 52°10' E 003°40'0 0.1
2018-Jun-15 11:30N 52°10' E 003°40'0 0.0
2018-Jun-15 11:00N 52°10' E 003°40'0 0.0
2018-Jun-15 10:30N 52°10' E 003°40'0 0.0
2018-Jun-15 10:00N 52°10' E 003°40'0 0.0
2018-Jun-15 09:30N 52°10' E 003°40'0 0.0
2018-Jun-15 09:00N 52°10' E 003°40'0 0.0
2018-Jun-15 08:30N 52°10' E 003°40'0 0.0
2018-Jun-15 08:00N 52°10' E 003°40'0 0.1
2018-Jun-15 07:30N 52°10' E 003°40'0 0.1
2018-Jun-15 06:58N 52°10' E 003°40'0 0.2
2018-Jun-15 06:29N 52°10' E 003°40'0 0.1
2018-Jun-15 05:59N 52°10' E 003°40'0 0.0
2018-Jun-15 05:29N 52°10' E 003°40'0 0.0
2018-Jun-15 05:00N 52°10' E 003°40'0 0.0
2018-Jun-15 04:30N 52°10' E 003°40'0 0.0
2018-Jun-15 04:00N 52°10' E 003°40'0 0.0
2018-Jun-15 03:29N 52°10' E 003°40'0 0.0
2018-Jun-15 03:00N 52°10' E 003°40'0 0.0
2018-Jun-15 02:30N 52°10' E 003°40'0 0.0
2018-Jun-15 02:00N 52°10' E 003°40'0 0.0
2018-Jun-15 01:30N 52°10' E 003°40'0 0.0
2018-Jun-15 00:59N 52°10' E 003°40'0 0.0
2018-Jun-15 00:30N 52°10' E 003°40'0 0.2
2018-Jun-14 23:59N 52°10' E 003°40'0 0.1
2018-Jun-14 23:30N 52°10' E 003°40'0 0.1
2018-Jun-14 23:00N 52°10' E 003°40'0 0.0
2018-Jun-14 22:30N 52°10' E 003°40'0 0.0
2018-Jun-14 22:00N 52°10' E 003°40'0 0.0
2018-Jun-14 21:30N 52°10' E 003°40'0 0.0
2018-Jun-14 21:00N 52°10' E 003°40'0 0.0
2018-Jun-14 20:30N 52°10' E 003°40'0 0.1
2018-Jun-14 20:00N 52°10' E 003°40'0 0.2
2018-Jun-14 19:30N 52°10' E 003°40'0 0.1
2018-Jun-14 19:00N 52°10' E 003°40'0 0.0
2018-Jun-14 18:30N 52°10' E 003°40'0 0.1
2018-Jun-14 18:00N 52°10' E 003°40'0 0.0
2018-Jun-14 17:30N 52°10' E 003°40'0 0.0
2018-Jun-14 17:00N 52°10' E 003°40'0 0.0
2018-Jun-14 16:29N 52°10' E 003°40'0 0.0
2018-Jun-14 15:59N 52°10' E 003°40'0 0.0
2018-Jun-14 15:25N 52°10' E 003°40'0 0.0
2018-Jun-14 15:00N 52°10' E 003°40'0 0.0
2018-Jun-14 14:29N 52°10' E 003°40'0 0.0
2018-Jun-14 14:00N 52°10' E 003°40'0 0.0
2018-Jun-14 13:30N 52°10' E 003°40'0 0.3
2018-Jun-14 13:00N 52°11' E 003°40'3 5.5
2018-Jun-14 12:30N 52°08' E 003°40'611.9
2018-Jun-14 12:00N 52°05' E 003°48'612.4
2018-Jun-14 11:30N 52°03' E 003°58'612.8
2018-Jun-14 11:00N 51°59' E 004°06'611.2
2018-Jun-14 10:30N 51°56' E 004°13'4 7.5
2018-Jun-14 10:00N 51°53' E 004°18'1 1.0
2018-Jun-14 09:25N 51°53' E 004°17'0 0.0
2018-Jun-14 08:10N 51°53' E 004°17'0 0.0
2018-Jun-14 07:49N 51°53' E 004°17'0 0.0
2018-Jun-14 07:22N 51°53' E 004°17'0 0.0
2018-Jun-14 06:55N 51°53' E 004°17'0 0.0
2018-Jun-14 06:25N 51°53' E 004°17'0 0.0
2018-Jun-14 05:55N 51°53' E 004°17'0 0.0
2018-Jun-14 05:13N 51°53' E 004°17'0 0.0
2018-Jun-14 04:46N 51°53' E 004°17'0 0.0
2018-Jun-14 04:25N 51°53' E 004°17'0 0.0
2018-Jun-14 03:07N 51°53' E 004°17'0 0.0
2018-Jun-14 02:55N 51°53' E 004°17'0 0.0
2018-Jun-14 02:25N 51°53' E 004°17'0 0.0
2018-Jun-14 01:55N 51°53' E 004°17'0 0.0
2018-Jun-13 22:55N 51°53' E 004°17'0 0.0
2018-Jun-13 22:25N 51°53' E 004°17'0 0.0
2018-Jun-13 21:31N 51°53' E 004°17'0 0.0
2018-Jun-13 21:01N 51°53' E 004°17'0 0.0
2018-Jun-13 17:25N 51°53' E 004°17'0 0.0
2018-Jun-13 16:49N 51°53' E 004°17'0 0.0
2018-Jun-13 14:55N 51°53' E 004°17'0 0.0
2018-Jun-13 14:13N 51°53' E 004°17'0 0.0
2018-Jun-13 12:13N 51°53' E 004°17'0 0.0
2018-Jun-13 11:49N 51°53' E 004°17'0 0.0
2018-Jun-13 11:25N 51°53' E 004°17'0 0.0
2018-Jun-13 10:49N 51°53' E 004°17'0 0.0
2018-Jun-13 10:28N 51°53' E 004°17'1 1.1
2018-Jun-13 09:58N 51°53' E 004°17'0 0.1
2018-Jun-13 09:28N 51°53' E 004°17'0 0.0
2018-Jun-13 08:58N 51°53' E 004°17'0 0.0
2018-Jun-13 08:28N 51°53' E 004°17'0 0.0
2018-Jun-13 07:58N 51°53' E 004°17'0 0.0
2018-Jun-13 07:28N 51°53' E 004°17'0 0.0
2018-Jun-13 06:58N 51°53' E 004°17'0 0.0
2018-Jun-13 06:28N 51°53' E 004°17'0 0.0
2018-Jun-13 05:58N 51°53' E 004°17'0 0.0
2018-Jun-13 05:28N 51°53' E 004°17'0 0.0
2018-Jun-13 04:58N 51°53' E 004°17'0 0.0
2018-Jun-13 04:28N 51°53' E 004°17'0 0.0
2018-Jun-13 03:58N 51°53' E 004°17'0 0.0
2018-Jun-13 03:25N 51°53' E 004°17'0 0.0
2018-Jun-13 02:58N 51°53' E 004°17'0 0.0
2018-Jun-13 02:28N 51°53' E 004°17'0 0.0
2018-Jun-13 01:58N 51°53' E 004°17'0 0.0
2018-Jun-13 01:28N 51°53' E 004°17'0 0.0
2018-Jun-13 00:58N 51°53' E 004°17'0 0.0
2018-Jun-13 00:28N 51°53' E 004°17'0 0.0
2018-Jun-12 23:58N 51°53' E 004°17'0 0.0
2018-Jun-12 23:28N 51°53' E 004°17'0 0.0
2018-Jun-12 22:58N 51°53' E 004°17'0 0.0
2018-Jun-12 22:28N 51°53' E 004°17'0 0.0
2018-Jun-12 21:58N 51°53' E 004°17'0 0.0
2018-Jun-12 21:28N 51°53' E 004°17'0 0.0
2018-Jun-12 20:58N 51°53' E 004°17'0 0.0
2018-Jun-12 20:28N 51°53' E 004°17'0 0.0
2018-Jun-12 19:58N 51°53' E 004°17'0 0.0
2018-Jun-12 19:28N 51°53' E 004°17'0 0.0
2018-Jun-12 18:58N 51°53' E 004°17'0 0.0
2018-Jun-12 18:28N 51°53' E 004°17'0 0.0
2018-Jun-12 17:58N 51°53' E 004°17'0 0.0
2018-Jun-12 17:28N 51°53' E 004°17'0 0.0
2018-Jun-12 16:58N 51°53' E 004°17'0 0.0
2018-Jun-12 16:28N 51°53' E 004°17'0 0.0
2018-Jun-12 15:55N 51°53' E 004°17'0 0.0
2018-Jun-12 15:28N 51°53' E 004°17'0 0.0
2018-Jun-12 14:58N 51°53' E 004°17'0 0.0
2018-Jun-12 14:28N 51°53' E 004°17'0 0.0
2018-Jun-12 13:58N 51°53' E 004°17'0 0.0
2018-Jun-12 13:28N 51°53' E 004°17'0 0.0
2018-Jun-12 12:58N 51°53' E 004°17'0 0.0
2018-Jun-12 12:28N 51°53' E 004°17'0 0.0
2018-Jun-12 11:58N 51°53' E 004°17'0 0.0
2018-Jun-12 11:28N 51°53' E 004°17'0 0.0
2018-Jun-12 10:58N 51°53' E 004°17'0 0.0
2018-Jun-12 10:28N 51°53' E 004°17'0 0.0
2018-Jun-12 09:58N 51°53' E 004°17'0 0.0
2018-Jun-12 09:28N 51°53' E 004°17'0 0.0
2018-Jun-12 08:58N 51°53' E 004°17'0 0.0
2018-Jun-12 08:28N 51°53' E 004°17'0 0.0
2018-Jun-12 07:58N 51°53' E 004°17'0 0.0
2018-Jun-12 07:28N 51°53' E 004°17'0 0.0
2018-Jun-12 06:58N 51°53' E 004°17'0 0.0
2018-Jun-12 06:28N 51°53' E 004°17'0 0.0
2018-Jun-12 05:58N 51°53' E 004°17'0 0.0
2018-Jun-12 05:28N 51°53' E 004°17'0 0.0
2018-Jun-12 04:58N 51°53' E 004°17'0 0.0
2018-Jun-12 04:28N 51°53' E 004°17'0 0.0
2018-Jun-12 03:58N 51°53' E 004°17'0 0.0
2018-Jun-12 03:28N 51°53' E 004°17'0 0.0
2018-Jun-12 02:58N 51°53' E 004°17'0 0.0
2018-Jun-12 02:28N 51°53' E 004°17'0 0.0
2018-Jun-12 01:58N 51°53' E 004°17'0 0.0
2018-Jun-12 01:25N 51°53' E 004°17'0 0.0
2018-Jun-12 01:00N 51°53' E 004°17'0 0.5
2018-Jun-12 00:30N 51°53' E 004°17'1 1.8
2018-Jun-12 00:00N 51°54' E 004°17'510.7
2018-Jun-11 23:30N 51°57' E 004°10'612.8
2018-Jun-11 23:00N 51°60' E 004°01'612.8
2018-Jun-11 22:30N 51°60' E 003°50'5 9.3
2018-Jun-11 22:00N 51°59' E 003°43'4 7.8
2018-Jun-11 21:30N 51°58' E 003°37'5 9.4
2018-Jun-11 21:00N 51°56' E 003°29'611.9
2018-Jun-11 20:30N 51°55' E 003°20'611.7
2018-Jun-11 20:00N 51°54' E 003°11'611.5
2018-Jun-11 19:29N 51°52' E 003°02'611.4
2018-Jun-11 18:58N 51°50' E 002°53'611.4
2018-Jun-11 18:29N 51°48' E 002°44'511.1
2018-Jun-11 18:00N 51°46' E 002°36'611.0
2018-Jun-11 17:30N 51°42' E 002°30'511.1
2018-Jun-11 17:00N 51°38' E 002°25'611.3
2018-Jun-11 16:30N 51°33' E 002°19'611.7
2018-Jun-11 16:00N 51°29' E 002°13'611.6
2018-Jun-11 15:30N 51°24' E 002°07'4 7.5
2018-Jun-11 14:59N 51°20' E 002°08'610.4
2018-Jun-11 14:27N 51°15' E 002°05'410.3
2018-Jun-11 14:00N 51°12' E 001°60'510.8
2018-Jun-11 13:30N 51°09' E 001°52'510.8
2018-Jun-11 13:00N 51°06' E 001°45'611.4
2018-Jun-11 12:30N 51°02' E 001°38'611.9
2018-Jun-11 11:59N 50°58' E 001°32'812.2
2018-Jun-11 11:17N 50°50' E 001°25'812.4
2018-Jun-11 10:40N 50°43' E 001°22'211.8
2018-Jun-11 10:29N 50°41' E 001°20'4811.7
2018-Jun-11 06:21N 50°21' E 000°11'613.4
2018-Jun-11 05:54N 50°19' E 000°02'614.4
2018-Jun-11 05:30N 50°18' W 000°07'1214.4
2018-Jun-11 04:39N 50°15' W 000°25'214.4
2018-Jun-11 04:30N 50°14' W 000°28'914.1
2018-Jun-11 03:54N 50°12' W 000°41'613.8
2018-Jun-11 03:28N 50°10' W 000°50'613.4
2018-Jun-11 03:00N 50°09' W 000°60'712.6
2018-Jun-11 02:29N 50°07' W 001°10'612.0
2018-Jun-11 02:00N 50°06' W 001°18'611.4
2018-Jun-11 01:30N 50°04' W 001°27'511.0
2018-Jun-11 01:01N 50°03' W 001°35'510.3
2018-Jun-11 00:30N 50°02' W 001°43'5 9.9
2018-Jun-11 00:01N 50°00' W 001°50'5 9.9
2018-Jun-10 23:30N 49°59' W 001°58'6 9.8
2018-Jun-10 22:57N 49°58' W 002°06'410.0
2018-Jun-10 22:30N 49°57' W 002°13'  

Dump ship's entire track history